Time;durP1;ratioP1;P1;durP2;ratioP2;P2;SDS_P1;SDS_P2;PMS_P1;PMS_P2;Temp;Humidity;BMP_temperature;BMP_pressure;BME280_temperature;BME280_humidity;BME280_pressure;Samples;Min_cycle;Max_cycle;Signal;HPM_P1;HPM_P2
2022/03/31 00:00:56;;;;;;;24.77;12.00;;;12.30;95.10;;;;;;5073529;28;20206;-70
2022/03/31 00:03:23;;;;;;;33.00;14.60;;;12.30;95.10;;;;;;5072899;28;20290;-70
2022/03/31 00:05:51;;;;;;;29.97;14.67;;;12.30;95.30;;;;;;5063299;28;20307;-70
2022/03/31 00:08:20;;;;;;;30.07;15.80;;;12.30;95.40;;;;;;5074030;28;20282;-70
2022/03/31 00:10:53;;;;;;;32.90;15.83;;;12.30;95.50;;;;;;5067896;28;20258;-70
2022/03/31 00:13:26;;;;;;;30.43;16.13;;;12.30;95.60;;;;;;5066819;28;20215;-70
2022/03/31 00:15:56;;;;;;;35.03;15.43;;;12.30;95.70;;;;;;5061497;28;20310;-71
2022/03/31 00:18:25;;;;;;;27.27;14.30;;;12.30;95.80;;;;;;5075386;28;20632;-71
2022/03/31 00:20:52;;;;;;;37.63;15.23;;;12.20;95.80;;;;;;5069512;28;20252;-71
2022/03/31 00:23:19;;;;;;;37.97;14.67;;;12.20;95.90;;;;;;5062398;28;20199;-71
2022/03/31 00:25:46;;;;;;;36.37;14.60;;;12.20;95.90;;;;;;5059416;28;20240;-70
2022/03/31 00:28:13;;;;;;;35.40;14.97;;;12.10;95.90;;;;;;5068800;28;20570;-70
2022/03/31 00:30:41;;;;;;;29.97;14.27;;;12.10;96.00;;;;;;5066313;28;20228;-70
2022/03/31 00:33:08;;;;;;;32.80;14.13;;;12.10;96.10;;;;;;5075543;28;20688;-70
2022/03/31 00:35:35;;;;;;;34.70;15.37;;;12.10;96.10;;;;;;5070696;28;20702;-70
2022/03/31 00:38:03;;;;;;;30.23;13.20;;;12.00;96.10;;;;;;5067997;28;20197;-70
2022/03/31 00:40:31;;;;;;;28.93;13.20;;;12.00;96.10;;;;;;5067564;28;20206;-70
2022/03/31 00:42:59;;;;;;;35.40;12.60;;;12.00;96.10;;;;;;5072947;28;20607;-70
2022/03/31 00:45:32;;;;;;;33.37;12.63;;;12.00;96.10;;;;;;5067349;28;20230;-70
2022/03/31 00:47:59;;;;;;;31.23;12.57;;;12.00;96.10;;;;;;5041051;28;20310;-70
2022/03/31 00:50:28;;;;;;;27.43;11.57;;;12.00;96.00;;;;;;5058984;28;20223;-70
2022/03/31 00:52:55;;;;;;;29.87;10.97;;;12.00;96.00;;;;;;5065305;28;20205;-70
2022/03/31 00:55:44;;;;;;;25.70;9.57;;;12.00;96.20;;;;;;5082674;28;20201;-70
2022/03/31 00:58:13;;;;;;;31.00;11.37;;;11.90;95.90;;;;;;5074774;28;20280;-70
2022/03/31 01:00:41;;;;;;;23.30;9.87;;;11.90;95.90;;;;;;5065766;28;20234;-70
2022/03/31 01:03:08;;;;;;;24.93;9.43;;;11.90;96.00;;;;;;5070063;28;20232;-70
2022/03/31 01:05:40;;;;;;;29.77;10.80;;;11.90;96.00;;;;;;5065197;28;20211;-70
2022/03/31 01:08:08;;;;;;;29.80;10.40;;;11.80;96.00;;;;;;5060714;28;20638;-70
2022/03/31 01:10:36;;;;;;;28.73;10.07;;;11.80;96.10;;;;;;5068886;28;20340;-70
2022/03/31 01:13:05;;;;;;;27.03;11.23;;;11.80;96.10;;;;;;5074864;28;20281;-70
2022/03/31 01:15:33;;;;;;;38.90;11.87;;;11.80;96.20;;;;;;5071516;28;20213;-70
2022/03/31 01:18:00;;;;;;;21.83;12.23;;;11.80;96.10;;;;;;5067278;28;20208;-70
2022/03/31 01:20:28;;;;;;;22.43;12.10;;;11.80;96.20;;;;;;5070058;28;20212;-70
2022/03/31 01:22:56;;;;;;;34.03;12.83;;;11.80;96.20;;;;;;5052242;28;20298;-70
2022/03/31 01:25:24;;;;;;;29.60;13.33;;;11.80;96.30;;;;;;5065908;28;20471;-70
2022/03/31 01:27:51;;;;;;;30.93;13.40;;;11.70;96.30;;;;;;5067488;28;20216;-70
2022/03/31 01:30:23;;;;;;;30.50;13.53;;;11.70;96.30;;;;;;5056626;28;20254;-70
2022/03/31 01:32:51;;;;;;;35.20;14.77;;;11.70;96.40;;;;;;5064303;28;20211;-70
2022/03/31 01:35:18;;;;;;;35.23;14.40;;;11.70;96.40;;;;;;5058320;28;20223;-70
2022/03/31 01:37:45;;;;;;;30.23;13.73;;;11.70;96.40;;;;;;5074328;28;20299;-70
2022/03/31 01:40:13;;;;;;;26.10;13.43;;;11.70;96.40;;;;;;5067836;28;20206;-70
2022/03/31 01:42:42;;;;;;;21.17;13.60;;;11.70;96.60;;;;;;5068666;28;20208;-70
2022/03/31 01:45:13;;;;;;;29.93;14.70;;;11.70;96.60;;;;;;5063797;28;20205;-70
2022/03/31 01:47:41;;;;;;;33.70;13.80;;;11.70;96.60;;;;;;5059853;28;20213;-70
2022/03/31 01:50:09;;;;;;;28.43;14.27;;;11.70;96.60;;;;;;5060283;28;20291;-70
2022/03/31 01:52:37;;;;;;;28.67;14.53;;;11.60;96.50;;;;;;5053414;28;20233;-70
2022/03/31 01:55:05;;;;;;;31.47;13.97;;;11.60;96.60;;;;;;5072276;28;20621;-70
2022/03/31 01:57:32;;;;;;;29.50;14.50;;;11.60;96.60;;;;;;5065531;28;20203;-70
2022/03/31 02:00:02;;;;;;;32.60;14.30;;;11.70;96.60;;;;;;5059427;28;20214;-70
2022/03/31 02:02:39;;;;;;;27.07;14.07;;;11.60;96.60;;;;;;5071213;28;20532;-70
2022/03/31 02:05:07;;;;;;;32.70;14.80;;;11.60;96.60;;;;;;5065967;28;20228;-70
2022/03/31 02:07:36;;;;;;;38.17;15.07;;;11.60;96.70;;;;;;5068323;28;20241;-70
2022/03/31 02:10:04;;;;;;;37.03;15.97;;;11.60;96.80;;;;;;5068567;28;20718;-70
2022/03/31 02:12:33;;;;;;;29.60;16.30;;;11.60;96.80;;;;;;5066457;28;20211;-70
2022/03/31 02:15:01;;;;;;;25.00;15.70;;;11.60;96.90;;;;;;5061832;28;20194;-70
2022/03/31 02:17:28;;;;;;;27.23;15.13;;;11.60;96.90;;;;;;5073408;28;20263;-70
2022/03/31 02:19:55;;;;;;;27.20;15.37;;;11.60;96.90;;;;;;5072116;28;20307;-70
2022/03/31 02:22:22;;;;;;;31.93;15.13;;;11.60;97.20;;;;;;5051150;28;20246;-70
2022/03/31 02:24:49;;;;;;;36.37;16.57;;;11.60;96.80;;;;;;5056684;28;20724;-70
2022/03/31 02:27:16;;;;;;;30.13;15.80;;;11.60;96.80;;;;;;5072209;28;20621;-70
2022/03/31 02:29:43;;;;;;;30.23;16.00;;;11.60;96.80;;;;;;5066540;28;20300;-70
2022/03/31 02:32:11;;;;;;;34.03;15.90;;;11.60;96.80;;;;;;5055014;28;20528;-70
2022/03/31 02:34:38;;;;;;;38.43;18.20;;;11.60;96.80;;;;;;5058969;28;20293;-70
2022/03/31 02:37:05;;;;;;;36.43;19.83;;;11.60;96.90;;;;;;5055964;28;20300;-70
2022/03/31 02:39:32;;;;;;;39.80;19.37;;;11.60;96.90;;;;;;5071389;28;20293;-70
2022/03/31 02:42:01;;;;;;;41.30;20.67;;;11.60;97.00;;;;;;5057965;28;20280;-70
2022/03/31 02:44:28;;;;;;;34.93;19.70;;;11.60;97.00;;;;;;5061703;28;20199;-70
2022/03/31 02:46:55;;;;;;;42.00;21.23;;;11.50;97.00;;;;;;5064425;28;20212;-70
2022/03/31 02:49:23;;;;;;;44.77;22.03;;;11.50;97.00;;;;;;5059304;28;20204;-70
2022/03/31 02:51:50;;;;;;;32.27;21.03;;;11.60;97.10;;;;;;5064284;28;20233;-70
2022/03/31 02:57:02;;;;;;;44.17;22.30;;;11.60;97.00;;;;;;5055740;28;20196;-70
2022/03/31 02:59:30;;;;;;;41.33;22.50;;;11.60;97.10;;;;;;5062510;28;20207;-70
2022/03/31 03:01:58;;;;;;;36.50;22.07;;;11.60;97.10;;;;;;5060079;28;20646;-70
2022/03/31 03:04:27;;;;;;;43.80;23.10;;;11.60;97.10;;;;;;5055317;28;20208;-70
2022/03/31 03:06:54;;;;;;;36.43;20.33;;;11.60;97.10;;;;;;5062217;28;20282;-70
2022/03/31 03:09:22;;;;;;;39.50;19.70;;;11.50;97.10;;;;;;5070861;28;20330;-70
2022/03/31 03:11:49;;;;;;;40.33;20.63;;;11.50;97.20;;;;;;5070183;28;20272;-70
2022/03/31 03:14:16;;;;;;;48.17;21.07;;;11.50;97.20;;;;;;5057898;28;20295;-70
2022/03/31 03:16:44;;;;;;;36.80;19.00;;;11.50;97.20;;;;;;5069037;28;20590;-70
2022/03/31 03:19:12;;;;;;;33.27;19.43;;;11.50;97.20;;;;;;5046160;28;20208;-70
2022/03/31 03:21:40;;;;;;;34.13;19.40;;;11.50;97.20;;;;;;5061093;28;20236;-70
2022/03/31 03:24:08;;;;;;;34.53;19.13;;;11.50;97.20;;;;;;5060128;28;20292;-70
2022/03/31 03:26:35;;;;;;;36.80;18.70;;;11.40;97.20;;;;;;5068530;28;20272;-70
2022/03/31 03:29:02;;;;;;;32.23;18.17;;;11.40;97.30;;;;;;5052585;28;20199;-70
2022/03/31 03:31:29;;;;;;;43.40;20.57;;;11.40;97.30;;;;;;5064334;28;20304;-70
2022/03/31 03:33:56;;;;;;;33.43;18.97;;;11.40;97.30;;;;;;5065149;28;20200;-70
2022/03/31 03:36:25;;;;;;;41.07;18.97;;;11.40;97.30;;;;;;5075706;28;20203;-70
2022/03/31 03:38:52;;;;;;;35.47;19.20;;;11.40;97.20;;;;;;5070999;28;20631;-70
2022/03/31 03:41:20;;;;;;;33.27;18.23;;;11.40;97.30;;;;;;5074877;28;20529;-70
2022/03/31 03:43:47;;;;;;;39.87;20.83;;;11.40;97.30;;;;;;5075826;28;20207;-70
2022/03/31 03:46:14;;;;;;;42.10;22.27;;;11.40;97.30;;;;;;5073012;28;20255;-70
2022/03/31 03:48:41;;;;;;;32.13;19.73;;;11.30;97.40;;;;;;5070383;28;20230;-70
2022/03/31 03:51:10;;;;;;;29.87;19.83;;;11.30;97.40;;;;;;5061167;28;20200;-70
2022/03/31 03:53:37;;;;;;;38.67;20.73;;;11.30;97.40;;;;;;5044806;28;20208;-70
2022/03/31 03:56:04;;;;;;;39.20;21.57;;;11.30;97.40;;;;;;5066271;28;20205;-70
2022/03/31 03:58:31;;;;;;;40.33;20.97;;;11.30;97.40;;;;;;5072864;28;20595;-70
2022/03/31 04:00:58;;;;;;;36.97;21.80;;;11.30;97.40;;;;;;5073267;28;20652;-70
2022/03/31 04:03:25;;;;;;;36.87;22.50;;;11.30;97.40;;;;;;5070730;28;20205;-70
2022/03/31 04:05:54;;;;;;;39.57;21.00;;;11.30;97.50;;;;;;5068414;28;20195;-70
2022/03/31 04:08:23;;;;;;;39.37;22.37;;;11.30;97.50;;;;;;5059823;28;20206;-70
2022/03/31 04:10:51;;;;;;;40.47;21.73;;;11.30;97.50;;;;;;5068417;28;20259;-70
2022/03/31 04:13:18;;;;;;;45.10;22.43;;;11.30;97.40;;;;;;5069403;28;20223;-70
2022/03/31 04:15:45;;;;;;;45.20;24.27;;;11.30;97.40;;;;;;5037295;28;20215;-70
2022/03/31 04:18:13;;;;;;;43.87;24.53;;;11.30;97.30;;;;;;5057661;28;20208;-70
2022/03/31 04:20:40;;;;;;;33.47;22.87;;;11.30;97.40;;;;;;5069688;28;20531;-70
2022/03/31 04:23:07;;;;;;;44.00;24.30;;;11.30;97.30;;;;;;5074205;28;20231;-70
2022/03/31 04:25:34;;;;;;;36.10;23.37;;;11.20;97.30;;;;;;5073487;28;20285;-70
2022/03/31 04:28:03;;;;;;;41.87;25.47;;;11.30;97.30;;;;;;5066056;28;20290;-70
2022/03/31 04:30:31;;;;;;;43.93;26.73;;;11.30;97.30;;;;;;5067017;28;20573;-70
2022/03/31 04:32:58;;;;;;;44.00;25.63;;;11.20;97.20;;;;;;5071462;28;20230;-70
2022/03/31 04:35:25;;;;;;;37.97;27.50;;;11.30;97.30;;;;;;5060628;28;20238;-70
2022/03/31 04:37:52;;;;;;;45.43;26.20;;;11.30;97.40;;;;;;5068205;28;20196;-70
2022/03/31 04:40:21;;;;;;;44.23;26.83;;;11.30;97.30;;;;;;5073147;28;20213;-70
2022/03/31 04:42:48;;;;;;;44.10;27.37;;;11.30;97.30;;;;;;5059726;28;20209;-70
2022/03/31 04:45:15;;;;;;;43.87;27.33;;;11.30;97.20;;;;;;5068704;28;20301;-70
2022/03/31 04:47:42;;;;;;;45.63;27.50;;;11.30;97.50;;;;;;5059868;28;20596;-70
2022/03/31 04:50:12;;;;;;;43.00;26.67;;;11.30;97.20;;;;;;5066247;28;20229;-70
2022/03/31 04:52:41;;;;;;;46.70;27.37;;;11.30;97.20;;;;;;5065638;28;20235;-70
2022/03/31 04:55:08;;;;;;;39.60;26.03;;;11.30;97.20;;;;;;5070462;28;20196;-70
2022/03/31 04:57:35;;;;;;;44.93;27.93;;;11.30;97.10;;;;;;5072797;28;20257;-71
2022/03/31 05:00:05;;;;;;;41.73;26.87;;;11.30;97.40;;;;;;5066958;28;20195;-70
2022/03/31 05:02:32;;;;;;;42.37;26.57;;;11.30;97.20;;;;;;5070512;28;20302;-70
2022/03/31 05:04:59;;;;;;;42.17;26.37;;;11.30;97.10;;;;;;5067089;28;20586;-70
2022/03/31 05:07:27;;;;;;;47.37;29.10;;;11.30;97.10;;;;;;5070052;28;20215;-70
2022/03/31 05:09:54;;;;;;;48.33;28.37;;;11.40;97.10;;;;;;5062049;28;20247;-70
2022/03/31 05:12:21;;;;;;;44.43;27.53;;;11.30;97.10;;;;;;5058066;28;20224;-70
2022/03/31 05:14:48;;;;;;;43.67;25.97;;;11.30;97.00;;;;;;5066412;28;20277;-70
2022/03/31 05:17:15;;;;;;;46.70;29.27;;;11.30;97.00;;;;;;5064292;28;20285;-70
2022/03/31 05:19:43;;;;;;;45.33;28.30;;;11.30;97.00;;;;;;5059427;28;20209;-70
2022/03/31 05:22:10;;;;;;;46.60;27.70;;;11.30;97.00;;;;;;5071402;28;20265;-70
2022/03/31 05:24:37;;;;;;;48.70;28.00;;;11.30;97.00;;;;;;5066455;28;20232;-70
2022/03/31 05:27:04;;;;;;;42.13;26.30;;;11.30;97.00;;;;;;5073323;28;20214;-70
2022/03/31 05:29:31;;;;;;;41.00;27.60;;;11.40;97.00;;;;;;5072639;28;20199;-70
2022/03/31 05:31:59;;;;;;;35.30;24.93;;;11.30;97.00;;;;;;5067209;28;20722;-70
2022/03/31 05:34:26;;;;;;;40.03;26.20;;;11.30;97.00;;;;;;5068641;28;20238;-70
2022/03/31 05:36:54;;;;;;;38.93;24.47;;;11.30;97.00;;;;;;5073435;28;20200;-71
2022/03/31 05:39:21;;;;;;;39.77;25.77;;;11.40;97.00;;;;;;5073558;28;20199;-71
2022/03/31 05:41:48;;;;;;;44.13;24.03;;;11.40;96.90;;;;;;5070334;28;20210;-71
2022/03/31 05:44:15;;;;;;;37.23;23.67;;;11.40;96.90;;;;;;5074271;28;20348;-71
2022/03/31 05:46:44;;;;;;;36.43;23.70;;;11.30;96.90;;;;;;5065318;28;20532;-71
2022/03/31 05:49:11;;;;;;;37.97;22.17;;;11.30;96.90;;;;;;5063151;28;20203;-71
2022/03/31 05:51:38;;;;;;;38.63;23.30;;;11.30;96.80;;;;;;5054905;28;20208;-70
2022/03/31 05:54:05;;;;;;;37.07;21.63;;;11.30;96.90;;;;;;5060062;28;20214;-70
2022/03/31 05:56:34;;;;;;;39.50;21.23;;;11.30;96.90;;;;;;5064979;28;20207;-70
2022/03/31 05:59:01;;;;;;;35.60;22.43;;;11.30;96.90;;;;;;5071516;28;20207;-70
2022/03/31 06:01:28;;;;;;;40.50;21.73;;;11.30;97.00;;;;;;5065172;28;20202;-70
2022/03/31 06:03:56;;;;;;;40.20;22.37;;;11.30;96.90;;;;;;5063524;28;20212;-70
2022/03/31 06:06:23;;;;;;;37.33;23.80;;;11.30;97.00;;;;;;5039431;28;20218;-70
2022/03/31 06:08:50;;;;;;;35.30;21.37;;;11.30;97.10;;;;;;5057337;28;20252;-70
2022/03/31 06:11:18;;;;;;;39.00;21.83;;;11.30;97.40;;;;;;5063206;28;20301;-70
2022/03/31 06:13:45;;;;;;;31.33;22.63;;;11.40;97.10;;;;;;5068681;28;20220;-70
2022/03/31 06:16:12;;;;;;;36.03;21.23;;;11.40;97.10;;;;;;5057173;28;20291;-70
2022/03/31 06:18:39;;;;;;;42.30;20.60;;;11.40;97.10;;;;;;5062133;28;20683;-70
2022/03/31 06:21:06;;;;;;;33.67;20.57;;;11.40;97.00;;;;;;5068015;28;20578;-70
2022/03/31 06:23:33;;;;;;;33.80;19.70;;;11.30;97.00;;;;;;5049310;28;20362;-70
2022/03/31 06:26:01;;;;;;;35.37;20.47;;;11.40;97.10;;;;;;5060587;28;20200;-70
2022/03/31 06:28:31;;;;;;;34.33;19.47;;;11.40;97.10;;;;;;5062967;28;20229;-71
2022/03/31 06:30:58;;;;;;;41.33;20.83;;;11.40;97.20;;;;;;5057960;28;20205;-70
2022/03/31 06:33:25;;;;;;;30.97;20.67;;;11.40;97.10;;;;;;5070059;28;20240;-70
2022/03/31 06:35:52;;;;;;;34.80;21.73;;;11.40;97.00;;;;;;5067002;28;20202;-70
2022/03/31 06:38:19;;;;;;;32.30;22.07;;;11.40;97.10;;;;;;5060222;28;20670;-70
2022/03/31 06:41:06;;;;;;;41.13;23.47;;;11.40;97.10;;;;;;5071037;28;20199;-70
2022/03/31 06:43:34;;;;;;;38.40;23.00;;;11.40;97.10;;;;;;5062884;28;20265;-70
2022/03/31 06:46:02;;;;;;;35.03;22.50;;;11.40;97.20;;;;;;5061827;28;20197;-70
2022/03/31 06:48:32;;;;;;;35.47;22.67;;;11.40;97.20;;;;;;5062243;28;20606;-70
2022/03/31 06:51:00;;;;;;;41.27;23.90;;;11.40;97.20;;;;;;5065093;28;20197;-70
2022/03/31 06:53:27;;;;;;;38.90;21.83;;;11.40;97.20;;;;;;5066757;28;20331;-70
2022/03/31 06:55:54;;;;;;;40.23;21.63;;;11.50;97.30;;;;;;5063185;28;20275;-70
2022/03/31 06:58:25;;;;;;;39.77;21.60;;;11.40;97.30;;;;;;5067782;28;20225;-70
2022/03/31 07:00:52;;;;;;;31.53;20.17;;;11.50;97.10;;;;;;5061838;28;20570;-70
2022/03/31 07:03:20;;;;;;;31.00;21.47;;;11.50;97.10;;;;;;5070399;28;20694;-70
2022/03/31 07:05:47;;;;;;;33.57;20.53;;;11.50;97.10;;;;;;5059381;28;20226;-70
2022/03/31 07:08:14;;;;;;;33.47;18.50;;;11.50;97.00;;;;;;5071184;28;20214;-70
2022/03/31 07:10:41;;;;;;;33.37;18.80;;;11.50;97.00;;;;;;5053321;28;20257;-70
2022/03/31 07:13:08;;;;;;;29.20;18.63;;;11.50;97.00;;;;;;5064702;28;20213;-70
2022/03/31 07:15:36;;;;;;;33.57;18.83;;;11.50;96.90;;;;;;5060764;28;20205;-70
2022/03/31 07:18:05;;;;;;;32.30;18.87;;;11.50;96.80;;;;;;5058150;28;20203;-70
2022/03/31 07:20:33;;;;;;;35.13;20.53;;;11.50;96.90;;;;;;5057219;28;20269;-70
2022/03/31 07:23:01;;;;;;;34.70;20.60;;;11.50;97.00;;;;;;5060601;28;20310;-70
2022/03/31 07:25:29;;;;;;;30.27;20.63;;;11.50;97.10;;;;;;5068418;28;20207;-70
2022/03/31 07:27:56;;;;;;;36.00;21.17;;;11.50;97.20;;;;;;5055720;28;20217;-70
2022/03/31 07:30:24;;;;;;;33.07;21.03;;;11.50;97.30;;;;;;5061031;28;20637;-70
2022/03/31 07:32:56;;;;;;;40.00;23.47;;;11.50;97.20;;;;;;5058695;28;20727;-70
2022/03/31 07:35:26;;;;;;;40.13;22.17;;;11.50;97.20;;;;;;5058974;28;20208;-70
2022/03/31 07:37:54;;;;;;;44.63;24.17;;;11.50;97.20;;;;;;5066734;28;20200;-70
2022/03/31 07:40:23;;;;;;;37.17;25.47;;;11.50;97.20;;;;;;5044106;28;20297;-70
2022/03/31 07:42:50;;;;;;;31.73;22.80;;;11.50;97.20;;;;;;5070223;28;20295;-70
2022/03/31 07:45:19;;;;;;;35.73;24.17;;;11.50;97.20;;;;;;5060637;28;20226;-70
2022/03/31 07:47:46;;;;;;;36.00;24.13;;;11.50;97.20;;;;;;5064769;28;20679;-70
2022/03/31 07:50:15;;;;;;;44.07;23.60;;;11.50;97.30;;;;;;5071066;28;20293;-70
2022/03/31 07:52:43;;;;;;;42.10;24.87;;;11.60;97.30;;;;;;5068472;28;20215;-70
2022/03/31 07:55:13;;;;;;;38.03;22.57;;;11.60;97.30;;;;;;5080319;28;20241;-70
2022/03/31 07:57:40;;;;;;;39.20;23.80;;;11.60;97.30;;;;;;5068513;28;20230;-70
2022/03/31 08:00:11;;;;;;;37.40;25.13;;;11.60;97.30;;;;;;5069208;28;20247;-70
2022/03/31 08:02:42;;;;;;;41.57;24.67;;;11.60;97.30;;;;;;5060850;28;20640;-70
2022/03/31 08:05:11;;;;;;;39.80;24.13;;;11.60;97.30;;;;;;5058811;28;20510;-70
2022/03/31 08:07:39;;;;;;;36.90;25.47;;;11.60;97.20;;;;;;5072618;28;20623;-70
2022/03/31 08:10:07;;;;;;;36.33;22.70;;;11.70;97.20;;;;;;5061098;28;20299;-70
2022/03/31 08:12:35;;;;;;;41.83;24.33;;;11.70;97.30;;;;;;5061314;28;20224;-70
2022/03/31 08:15:05;;;;;;;45.57;25.10;;;11.70;97.20;;;;;;5055673;28;20277;-70
2022/03/31 08:17:32;;;;;;;37.40;25.33;;;11.70;97.20;;;;;;5059287;28;20228;-70
2022/03/31 08:20:00;;;;;;;42.57;25.33;;;11.80;97.20;;;;;;5069486;28;20202;-70
2022/03/31 08:22:27;;;;;;;36.07;23.17;;;11.80;97.20;;;;;;5024741;28;20223;-70
2022/03/31 08:25:00;;;;;;;34.73;23.73;;;11.80;97.20;;;;;;5065301;28;20263;-70
2022/03/31 08:27:28;;;;;;;42.23;24.70;;;11.80;97.20;;;;;;5065364;28;20286;-70
2022/03/31 08:29:55;;;;;;;39.27;25.10;;;11.90;97.00;;;;;;5060992;28;20200;-70
2022/03/31 08:32:22;;;;;;;39.63;28.03;;;11.90;96.90;;;;;;5074601;28;20214;-70
2022/03/31 08:34:50;;;;;;;44.03;28.30;;;12.00;96.90;;;;;;5073906;28;20651;-70
2022/03/31 08:37:18;;;;;;;46.03;27.87;;;12.00;96.90;;;;;;5062692;28;20285;-70
2022/03/31 08:39:45;;;;;;;43.07;28.33;;;12.00;97.00;;;;;;5056190;28;20236;-70
2022/03/31 08:42:12;;;;;;;46.00;29.33;;;12.10;96.80;;;;;;5071002;28;20613;-70
2022/03/31 08:44:39;;;;;;;42.93;29.17;;;12.10;96.60;;;;;;5068241;28;20226;-70
2022/03/31 08:47:09;;;;;;;40.90;29.87;;;12.20;96.60;;;;;;5075515;28;20228;-70
2022/03/31 08:49:37;;;;;;;52.87;29.80;;;12.20;96.20;;;;;;5065968;28;20606;-70
2022/03/31 08:52:04;;;;;;;49.83;31.40;;;12.20;96.30;;;;;;5063655;28;20618;-70
2022/03/31 08:54:32;;;;;;;52.53;30.77;;;12.30;96.30;;;;;;5058633;28;20232;-70
2022/03/31 08:56:59;;;;;;;41.40;29.40;;;12.30;96.50;;;;;;5071688;28;20230;-70
2022/03/31 08:59:46;;;;;;;42.60;29.17;;;12.40;96.50;;;;;;5066400;28;20216;-70
2022/03/31 09:02:26;;;;;;;42.30;28.33;;;12.40;96.20;;;;;;5072989;28;20209;-70
2022/03/31 09:05:05;;;;;;;36.63;29.17;;;12.40;95.90;;;;;;5068387;28;20294;-70
2022/03/31 09:07:32;;;;;;;43.03;28.90;;;12.50;95.80;;;;;;5064361;28;20602;-70
2022/03/31 09:09:59;;;;;;;39.43;28.10;;;12.40;95.50;;;;;;5070541;28;20279;-70
2022/03/31 09:12:37;;;;;;;43.93;28.93;;;12.40;95.30;;;;;;5069441;28;20208;-70
2022/03/31 09:15:24;;;;;;;50.37;30.03;;;12.40;95.40;;;;;;5065109;28;20286;-70
2022/03/31 09:17:56;;;;;;;40.93;27.57;;;12.40;95.60;;;;;;5073339;28;20205;-70
2022/03/31 09:20:35;;;;;;;45.80;24.87;;;12.50;95.50;;;;;;5055731;28;20213;-70
2022/03/31 09:23:03;;;;;;;44.90;29.97;;;12.40;95.60;;;;;;5065495;28;20272;-70
2022/03/31 09:25:32;;;;;;;48.63;30.93;;;12.40;95.20;;;;;;5056216;28;20263;-70
2022/03/31 09:28:10;;;;;;;44.97;30.23;;;12.40;95.30;;;;;;5055555;28;20214;-70
2022/03/31 09:31:06;;;;;;;45.63;30.33;;;12.40;95.60;;;;;;5065756;28;20693;-70
2022/03/31 09:33:37;;;;;;;42.47;31.70;;;12.40;95.60;;;;;;5057031;28;20256;-71
2022/03/31 09:36:07;;;;;;;39.90;28.47;;;12.40;95.70;;;;;;5059027;28;20293;-70
2022/03/31 09:38:37;;;;;;;54.10;32.03;;;12.50;95.80;;;;;;5061775;28;20205;-70
2022/03/31 09:41:19;;;;;;;54.23;32.90;;;12.50;95.80;;;;;;5062960;28;20202;-70
2022/03/31 09:43:47;;;;;;;51.27;33.67;;;12.50;95.80;;;;;;5058311;28;20286;-70
2022/03/31 09:46:21;;;;;;;46.87;32.30;;;12.50;95.80;;;;;;5064383;28;20216;-70
2022/03/31 09:48:50;;;;;;;43.20;30.90;;;12.50;95.70;;;;;;5074160;28;20198;-70
2022/03/31 09:51:18;;;;;;;44.03;29.57;;;12.50;95.70;;;;;;5072171;28;20211;-70
2022/03/31 09:53:53;;;;;;;49.30;30.03;;;12.50;95.70;;;;;;5071322;28;20279;-70
2022/03/31 09:56:22;;;;;;;47.97;30.10;;;12.50;95.60;;;;;;5061864;28;20212;-70
2022/03/31 09:58:51;;;;;;;45.83;32.30;;;12.50;95.60;;;;;;5072269;28;20215;-70
2022/03/31 10:01:18;;;;;;;47.70;31.73;;;12.50;95.60;;;;;;5065615;28;20223;-70
2022/03/31 10:03:46;;;;;;;54.33;31.47;;;12.60;95.60;;;;;;5060509;28;20263;-70
2022/03/31 10:06:13;;;;;;;53.80;33.43;;;12.60;95.60;;;;;;5054679;28;20270;-70
2022/03/31 10:08:44;;;;;;;48.70;32.33;;;12.60;95.50;;;;;;5062928;28;20613;-70
2022/03/31 10:11:19;;;;;;;46.30;31.37;;;12.60;95.60;;;;;;5063582;28;20662;-70
2022/03/31 10:13:52;;;;;;;54.57;33.20;;;12.60;95.60;;;;;;5058449;28;20251;-70
2022/03/31 10:16:31;;;;;;;50.03;31.90;;;12.60;95.70;;;;;;5064004;28;20200;-70
2022/03/31 10:18:58;;;;;;;48.63;33.53;;;12.60;95.80;;;;;;5064664;28;20211;-70
2022/03/31 10:21:27;;;;;;;48.13;31.33;;;12.60;95.80;;;;;;5058087;28;20220;-70
2022/03/31 10:26:40;;;;;;;44.93;30.73;;;12.60;95.90;;;;;;5063755;28;20208;-70
2022/03/31 10:29:16;;;;;;;50.23;29.67;;;12.70;95.90;;;;;;5070727;28;20292;-70
2022/03/31 10:31:45;;;;;;;48.70;31.37;;;12.70;95.90;;;;;;5071383;28;20222;-70
2022/03/31 10:34:14;;;;;;;45.00;29.83;;;12.70;96.00;;;;;;5065947;28;20217;-70
2022/03/31 10:36:47;;;;;;;46.60;31.53;;;12.70;96.00;;;;;;5059538;28;20260;-70
2022/03/31 10:39:23;;;;;;;53.27;28.83;;;12.70;96.00;;;;;;5065756;28;20203;-70
2022/03/31 10:42:02;;;;;;;39.67;27.73;;;12.80;96.00;;;;;;5058345;28;20203;-70
2022/03/31 10:44:29;;;;;;;46.67;28.37;;;12.80;96.00;;;;;;5064730;28;20203;-70
2022/03/31 10:47:06;;;;;;;42.77;27.73;;;12.80;96.00;;;;;;5055072;28;20287;-71
2022/03/31 10:49:34;;;;;;;43.17;29.43;;;12.80;96.00;;;;;;5060222;28;20216;-71
2022/03/31 10:52:17;;;;;;;40.07;27.43;;;12.80;96.00;;;;;;5068164;28;20208;-71
2022/03/31 10:54:44;;;;;;;39.63;26.27;;;12.90;96.00;;;;;;5066882;28;20229;-71
2022/03/31 10:57:17;;;;;;;45.83;26.60;;;12.90;96.00;;;;;;5059756;28;20208;-71
2022/03/31 10:59:47;;;;;;;36.70;24.50;;;12.90;95.90;;;;;;5062457;28;20297;-71
2022/03/31 11:02:19;;;;;;;48.67;25.23;;;13.00;95.70;;;;;;5070406;28;20290;-71
2022/03/31 11:04:55;;;;;;;39.60;23.83;;;12.90;95.60;;;;;;5056630;28;20205;-71
2022/03/31 11:07:24;;;;;;;44.20;23.30;;;12.90;95.60;;;;;;5063705;28;20271;-71
2022/03/31 11:10:06;;;;;;;38.83;25.23;;;12.90;95.50;;;;;;5055791;28;20683;-72
2022/03/31 11:12:35;;;;;;;38.47;24.40;;;12.90;95.50;;;;;;5059795;28;20638;-71
2022/03/31 11:15:07;;;;;;;37.83;23.70;;;12.90;95.60;;;;;;5063278;28;20224;-71
2022/03/31 11:17:35;;;;;;;39.80;23.20;;;12.90;95.60;;;;;;5053550;28;20198;-71
2022/03/31 11:20:23;;;;;;;41.03;23.17;;;12.90;95.60;;;;;;5062479;28;20235;-71
2022/03/31 11:23:03;;;;;;;39.23;24.07;;;12.90;95.60;;;;;;5063444;28;20205;-71
2022/03/31 11:25:30;;;;;;;48.60;25.60;;;12.90;95.60;;;;;;5067990;28;20224;-71
2022/03/31 11:28:05;;;;;;;46.73;26.17;;;12.90;95.60;;;;;;5060146;28;20279;-71
2022/03/31 11:30:33;;;;;;;48.67;27.70;;;12.90;95.70;;;;;;5063279;28;20198;-71
2022/03/31 11:33:01;;;;;;;44.73;27.77;;;12.90;95.70;;;;;;5072756;28;20522;-71
2022/03/31 11:35:29;;;;;;;41.33;27.80;;;12.90;95.80;;;;;;5059450;28;20267;-71
2022/03/31 11:38:00;;;;;;;42.83;26.23;;;12.90;95.80;;;;;;5064634;28;20259;-71
2022/03/31 11:40:33;;;;;;;42.00;26.47;;;12.90;95.80;;;;;;5057547;28;20277;-70
2022/03/31 11:43:04;;;;;;;36.93;24.93;;;13.00;95.90;;;;;;5064386;28;20258;-70
2022/03/31 11:45:42;;;;;;;45.63;26.90;;;12.90;95.80;;;;;;5060159;28;20662;-70
2022/03/31 11:48:17;;;;;;;39.47;24.00;;;12.90;95.80;;;;;;5057657;28;20249;-70
2022/03/31 11:50:56;;;;;;;32.10;22.27;;;12.90;95.70;;;;;;5059285;28;20208;-70
2022/03/31 11:53:47;;;;;;;37.73;22.83;;;12.90;95.20;;;;;;5068963;28;20631;-70
2022/03/31 11:56:22;;;;;;;34.83;22.20;;;12.80;95.10;;;;;;5067169;28;20284;-70
2022/03/31 11:58:55;;;;;;;37.53;22.30;;;12.80;95.30;;;;;;5076151;28;20223;-70
2022/03/31 12:01:32;;;;;;;34.43;21.27;;;12.70;95.20;;;;;;5067903;28;20210;-70
2022/03/31 12:03:59;;;;;;;32.20;21.43;;;12.70;95.30;;;;;;5065714;28;20211;-70
2022/03/31 12:06:30;;;;;;;35.00;23.53;;;12.70;95.40;;;;;;5074026;28;20657;-70
2022/03/31 12:08:58;;;;;;;35.33;22.77;;;12.70;95.60;;;;;;5063518;28;20320;-70
2022/03/31 12:11:25;;;;;;;44.97;24.47;;;12.70;95.70;;;;;;5063258;28;20235;-70
2022/03/31 12:13:57;;;;;;;36.07;23.47;;;12.80;95.90;;;;;;5075261;28;20545;-70
2022/03/31 12:16:25;;;;;;;38.43;21.77;;;12.80;95.90;;;;;;5059681;28;20691;-70
2022/03/31 12:19:00;;;;;;;35.43;22.03;;;12.90;95.80;;;;;;5067772;28;20207;-70
2022/03/31 12:21:28;;;;;;;33.77;22.40;;;12.90;95.50;;;;;;5073883;28;20213;-70
2022/03/31 12:24:02;;;;;;;35.47;21.43;;;13.00;95.40;;;;;;5071322;28;20201;-70
2022/03/31 12:26:51;;;;;;;33.17;21.60;;;13.00;95.20;;;;;;5079379;28;20233;-70
2022/03/31 12:29:20;;;;;;;31.27;22.10;;;13.00;95.20;;;;;;5071199;28;20304;-70
2022/03/31 12:31:48;;;;;;;34.43;20.50;;;13.00;95.20;;;;;;5063851;28;20293;-70
2022/03/31 12:34:15;;;;;;;29.07;19.87;;;13.00;95.30;;;;;;5065688;28;20572;-70
2022/03/31 12:36:43;;;;;;;33.27;20.93;;;13.00;95.20;;;;;;5058490;28;20297;-70
2022/03/31 12:39:11;;;;;;;33.20;20.67;;;13.00;94.90;;;;;;5058540;28;20568;-70
2022/03/31 12:41:39;;;;;;;32.33;22.17;;;13.10;95.00;;;;;;5064498;28;20285;-70
2022/03/31 12:44:21;;;;;;;36.13;21.77;;;13.10;95.10;;;;;;5060358;28;20208;-70